Time;durP1;ratioP1;P1;durP2;ratioP2;P2;SDS_P1;SDS_P2;PMS_P1;PMS_P2;Temp;Humidity;BMP_temperature;BMP_pressure;BME280_temperature;BME280_humidity;BME280_pressure;Samples;Min_cycle;Max_cycle;Signal;HPM_P1;HPM_P2
2021/04/12 00:00:12;;;;;;;6.30;2.85;;;4.50;88.10;;;5.11;68.98;101091.84;4991739;28;20042;-83
2021/04/12 00:02:48;;;;;;;6.82;2.53;;;4.50;88.20;;;5.07;69.32;101104.75;4991550;28;20590;-83
2021/04/12 00:05:31;;;;;;;7.05;3.10;;;4.40;88.00;;;5.07;69.25;101112.84;4992004;28;20053;-83
2021/04/12 00:08:10;;;;;;;8.05;2.85;;;4.40;88.00;;;5.05;69.12;101115.69;4990905;28;20053;-82
2021/04/12 00:10:43;;;;;;;6.50;2.42;;;4.40;88.10;;;5.07;69.09;101105.59;4995739;28;20050;-82
2021/04/12 00:13:17;;;;;;;7.80;3.10;;;4.40;88.30;;;5.08;68.98;101109.16;4993696;28;20100;-83
2021/04/12 00:15:49;;;;;;;8.40;2.60;;;4.40;88.20;;;4.98;69.21;101121.75;4994182;28;20046;-82
2021/04/12 00:18:24;;;;;;;5.60;2.50;;;4.30;88.40;;;4.97;69.68;101118.19;4995764;28;20050;-83
2021/04/12 00:20:57;;;;;;;6.95;2.90;;;4.30;88.60;;;4.97;69.63;101117.31;4994522;28;20801;-82
2021/04/12 00:23:33;;;;;;;10.60;3.05;;;4.30;88.70;;;4.94;69.60;101121.16;4994713;28;20042;-82
2021/04/12 00:26:11;;;;;;;8.15;2.58;;;4.30;88.70;;;4.91;69.52;101118.72;4995177;28;20535;-82
2021/04/12 00:28:44;;;;;;;9.35;3.00;;;4.20;88.80;;;4.92;70.07;101123.13;4994325;28;20050;-83
2021/04/12 00:31:18;;;;;;;8.45;2.65;;;4.20;89.00;;;4.88;69.84;101121.69;4993482;28;20050;-82
2021/04/12 00:33:50;;;;;;;6.28;3.03;;;4.30;88.90;;;4.94;69.86;101118.44;4995133;28;20415;-83
2021/04/12 00:36:26;;;;;;;6.40;2.90;;;4.20;89.10;;;4.95;70.00;101122.88;4993605;28;20109;-82
2021/04/12 00:39:01;;;;;;;8.25;2.88;;;4.20;89.30;;;4.98;70.06;101122.59;4993518;28;20050;-82
2021/04/12 00:41:57;;;;;;;9.77;3.42;;;4.20;89.40;;;4.94;69.82;101118.44;4993398;28;20046;-82
2021/04/12 00:44:43;;;;;;;7.80;3.03;;;4.20;89.20;;;4.91;69.89;101118.72;4993903;28;20075;-83
2021/04/12 00:47:29;;;;;;;7.75;3.20;;;4.30;89.20;;;4.85;70.00;101119.25;4995190;28;20042;-82
2021/04/12 00:50:25;;;;;;;6.93;3.25;;;4.30;89.20;;;4.88;69.89;101119.00;4993062;28;20046;-83
2021/04/12 00:53:43;;;;;;;7.40;3.17;;;4.20;89.10;;;4.86;69.84;101138.00;4993472;28;20081;-83
2021/04/12 00:56:18;;;;;;;9.45;3.28;;;4.20;89.00;;;4.89;70.19;101126.06;4994161;28;20054;-83
2021/04/12 00:58:58;;;;;;;9.48;3.35;;;4.20;89.30;;;4.93;69.81;101130.25;4993456;28;20611;-82
2021/04/12 01:01:45;;;;;;;7.43;3.20;;;4.20;89.50;;;4.85;70.17;101125.50;4993323;28;20043;-83
2021/04/12 01:04:40;;;;;;;11.40;3.72;;;4.30;89.40;;;4.85;70.10;101128.19;4992892;28;20066;-83
2021/04/12 01:08:24;;;;;;;9.77;3.33;;;4.30;89.20;;;4.79;70.13;101130.56;4994972;28;20468;-83
2021/04/12 01:11:55;;;;;;;8.43;3.95;;;4.20;89.10;;;4.85;70.50;101135.44;4955021;28;20061;-82
2021/04/12 01:15:15;;;;;;;8.00;3.67;;;4.20;89.40;;;4.80;70.59;101132.28;4977997;28;20500;-83
2021/04/12 01:18:24;;;;;;;7.88;3.40;;;4.20;89.20;;;4.86;70.62;101140.69;4994636;28;20109;-83
2021/04/12 01:21:28;;;;;;;8.60;3.60;;;4.20;89.80;;;4.85;70.86;101148.91;4993936;28;20046;-83
2021/04/12 01:24:38;;;;;;;7.38;3.40;;;4.20;90.10;;;4.83;71.08;101154.44;4961532;28;20093;-82
2021/04/12 01:27:50;;;;;;;9.27;3.70;;;4.10;90.30;;;4.80;70.65;101153.88;4994280;28;20057;-82
2021/04/12 01:31:13;;;;;;;7.50;3.65;;;4.10;90.00;;;4.78;70.65;101172.88;4994790;28;20038;-82
2021/04/12 01:34:46;;;;;;;8.50;3.58;;;4.10;90.00;;;4.65;70.51;101173.03;4994313;28;20403;-83
2021/04/12 01:37:40;;;;;;;11.85;3.72;;;4.00;90.00;;;4.61;70.55;101179.69;4907273;29;20353;-83
2021/04/12 01:40:24;;;;;;;10.60;3.70;;;4.00;90.20;;;4.64;70.71;101174.00;4993184;28;20038;-82
2021/04/12 01:43:03;;;;;;;9.60;4.28;;;4.00;90.30;;;4.66;71.05;101174.78;4994646;28;20057;-82
2021/04/12 01:45:56;;;;;;;11.07;3.85;;;3.90;90.60;;;4.61;70.87;101184.22;4992826;28;20054;-83
2021/04/12 01:48:55;;;;;;;10.00;3.80;;;3.90;90.40;;;4.55;71.17;101180.22;4994804;28;20105;-82
2021/04/12 01:52:07;;;;;;;9.75;3.90;;;3.90;90.50;;;4.55;71.24;101174.81;4994503;28;20041;-82
2021/04/12 01:54:49;;;;;;;10.48;4.63;;;3.90;90.70;;;4.58;71.16;101187.16;4993282;28;20458;-83
2021/04/12 01:57:37;;;;;;;10.38;3.80;;;3.90;90.80;;;4.64;71.32;101192.03;4992004;28;20531;-82
2021/04/12 02:00:39;;;;;;;8.57;3.95;;;3.90;91.20;;;4.55;70.75;101193.69;4993035;28;20038;-83
2021/04/12 02:03:36;;;;;;;8.38;3.83;;;3.80;90.80;;;4.49;71.01;101196.88;4991355;28;20049;-83
2021/04/12 02:06:36;;;;;;;7.65;4.03;;;3.90;90.80;;;4.46;70.94;101205.22;4994691;28;20530;-83
2021/04/12 02:09:28;;;;;;;10.82;4.60;;;3.70;90.80;;;4.39;70.92;101212.13;4993285;28;20042;-83
2021/04/12 02:12:13;;;;;;;11.07;4.32;;;3.70;91.00;;;4.44;70.99;101212.59;4990795;28;20054;-83
2021/04/12 02:14:56;;;;;;;12.65;4.65;;;3.70;91.10;;;4.41;70.92;101213.69;4993446;28;20050;-83
2021/04/12 02:17:40;;;;;;;14.05;4.60;;;3.70;91.20;;;4.45;71.17;101220.53;4993264;28;20104;-83
2021/04/12 02:20:21;;;;;;;11.98;4.63;;;3.60;91.50;;;4.41;71.53;101226.31;4994292;28;20054;-83
2021/04/12 02:23:12;;;;;;;11.80;4.25;;;3.60;91.50;;;4.37;71.25;101225.72;4991370;28;20140;-83
2021/04/12 02:26:00;;;;;;;10.07;4.23;;;3.60;91.50;;;4.31;71.49;101213.59;4993025;28;20058;-83
2021/04/12 02:28:58;;;;;;;12.23;4.30;;;3.50;91.50;;;4.29;71.19;101226.34;4993850;28;20046;-83
2021/04/12 02:31:43;;;;;;;11.25;4.45;;;3.50;91.60;;;4.24;71.07;101217.78;4992676;28;20049;-83
2021/04/12 02:34:31;;;;;;;9.88;4.18;;;3.50;91.70;;;4.22;71.53;101218.88;4992696;28;20054;-83
2021/04/12 02:37:27;;;;;;;7.90;4.15;;;3.40;91.70;;;4.21;71.71;101218.03;4993466;28;20045;-84
2021/04/12 02:40:19;;;;;;;10.50;4.50;;;3.40;91.80;;;4.16;71.26;101225.63;4993168;28;20074;-83
2021/04/12 02:43:03;;;;;;;11.10;4.63;;;3.40;91.70;;;4.14;71.48;101237.53;4992008;28;20046;-83
2021/04/12 02:45:55;;;;;;;11.23;5.18;;;3.30;91.80;;;4.11;71.80;101233.22;4993031;28;20046;-83
2021/04/12 02:48:47;;;;;;;12.90;4.88;;;3.30;91.80;;;4.12;71.98;101232.25;4992117;28;20438;-83
2021/04/12 02:51:47;;;;;;;9.27;4.82;;;3.30;92.10;;;4.15;71.84;101240.09;4992373;28;20046;-83
2021/04/12 02:55:07;;;;;;;10.07;4.90;;;3.30;92.20;;;4.16;71.50;101240.94;4992295;28;20460;-83
2021/04/12 02:58:37;;;;;;;12.15;4.90;;;3.30;92.10;;;4.08;71.63;101250.50;4971218;28;20400;-83
2021/04/12 03:01:27;;;;;;;15.60;5.30;;;3.20;91.80;;;4.09;71.46;101256.75;4947096;28;20093;-83
2021/04/12 03:04:14;;;;;;;11.57;4.95;;;3.20;92.00;;;4.03;71.43;101255.41;4992947;28;20045;-83
2021/04/12 03:07:09;;;;;;;15.68;4.97;;;3.20;91.90;;;4.06;70.91;101257.00;4991593;28;20042;-83
2021/04/12 03:09:54;;;;;;;10.45;5.00;;;3.20;91.90;;;4.04;70.95;101248.19;4992812;28;20945;-83
2021/04/12 03:13:20;;;;;;;10.40;5.10;;;3.10;91.90;;;3.96;71.52;101256.00;4992063;28;20522;-83
2021/04/12 03:16:22;;;;;;;14.13;5.20;;;3.10;92.10;;;3.95;71.18;101265.09;4992851;28;20177;-83
2021/04/12 03:19:50;;;;;;;15.68;5.53;;;3.10;92.10;;;3.92;71.53;101263.47;4992622;28;20046;-83
2021/04/12 03:23:04;;;;;;;12.05;5.53;;;3.10;92.10;;;3.82;71.12;101260.66;4975895;28;20054;-83
2021/04/12 03:26:03;;;;;;;11.40;5.28;;;3.00;91.70;;;3.80;71.65;101267.16;4992370;28;20039;-83
2021/04/12 03:28:58;;;;;;;10.35;5.60;;;3.00;91.80;;;3.79;72.07;101260.06;4991447;28;20534;-83
2021/04/12 03:31:56;;;;;;;12.40;5.50;;;3.00;92.30;;;3.84;71.98;101258.72;4985821;28;20058;-83
2021/04/12 03:34:30;;;;;;;12.50;5.38;;;3.00;92.50;;;3.84;71.56;101261.41;4992136;28;20506;-83
2021/04/12 03:37:49;;;;;;;12.02;5.38;;;3.00;92.50;;;3.74;71.86;101252.34;4992136;28;20042;-83
2021/04/12 03:40:25;;;;;;;10.52;5.38;;;3.00;92.50;;;3.71;72.18;101252.59;4990025;28;20058;-83
2021/04/12 03:43:21;;;;;;;8.77;5.22;;;3.00;92.70;;;3.71;72.05;101247.22;4989622;28;20057;-83
2021/04/12 03:46:26;;;;;;;12.35;6.10;;;2.90;92.80;;;3.70;72.14;101250.91;4991938;28;20109;-83
2021/04/12 03:49:39;;;;;;;12.73;6.28;;;2.90;92.90;;;3.67;71.91;101253.81;4984941;28;20081;-83
2021/04/12 03:53:01;;;;;;;13.95;5.70;;;2.90;92.70;;;3.62;72.12;101253.34;4975219;28;20058;-83
2021/04/12 03:56:16;;;;;;;8.68;5.75;;;2.90;92.60;;;3.68;72.22;101263.63;4992988;28;20098;-83
2021/04/12 03:59:08;;;;;;;10.98;6.00;;;2.90;92.60;;;3.61;72.28;101270.47;4992449;28;20080;-83
2021/04/12 04:02:10;;;;;;;14.82;5.97;;;2.80;92.40;;;3.61;72.10;101276.69;4991251;28;20056;-83
2021/04/12 04:05:06;;;;;;;11.35;6.20;;;2.80;92.40;;;3.55;72.12;101273.63;4991735;28;20046;-83
2021/04/12 04:08:33;;;;;;;13.45;6.65;;;2.80;92.60;;;3.55;72.19;101276.34;4992380;28;20050;-83
2021/04/12 04:11:50;;;;;;;11.98;6.60;;;2.80;92.90;;;3.63;71.91;101281.97;4997994;28;20050;-83
2021/04/12 04:15:06;;;;;;;18.52;6.63;;;2.80;92.90;;;3.66;71.57;101282.56;4956744;28;20061;-83
2021/04/12 04:18:08;;;;;;;13.48;6.35;;;2.80;92.90;;;3.66;71.46;101276.34;4992724;28;20073;-83
2021/04/12 04:21:19;;;;;;;12.85;6.53;;;2.80;92.70;;;3.61;71.88;101290.16;4993349;28;20145;-83
2021/04/12 04:24:11;;;;;;;14.57;6.93;;;2.80;92.70;;;3.62;71.70;101291.03;4992188;28;20054;-83
2021/04/12 04:27:05;;;;;;;10.80;6.15;;;2.80;92.70;;;3.61;71.37;101292.00;4992977;28;20061;-83
2021/04/12 04:30:01;;;;;;;13.70;6.72;;;2.70;92.60;;;3.58;71.76;101297.59;4991564;28;20061;-83
2021/04/12 04:33:04;;;;;;;16.35;6.82;;;2.70;92.60;;;3.59;71.25;101296.63;4989899;28;20745;-82
2021/04/12 04:36:21;;;;;;;16.20;7.18;;;2.70;92.60;;;3.55;71.41;101300.56;4993001;28;20081;-82
2021/04/12 04:39:06;;;;;;;17.38;7.28;;;2.70;92.50;;;3.55;71.48;101298.72;4975502;28;20078;-84
2021/04/12 04:41:53;;;;;;;14.00;7.53;;;2.70;92.50;;;3.47;71.77;101304.69;4994320;28;20097;-85
2021/04/12 04:44:51;;;;;;;15.93;7.88;;;2.60;92.50;;;3.44;71.66;101304.91;4993724;28;20050;-84
2021/04/12 04:48:20;;;;;;;14.57;7.32;;;2.60;92.60;;;3.46;71.42;101302.97;4993525;28;20069;-85
2021/04/12 04:51:18;;;;;;;15.57;7.63;;;2.60;92.80;;;3.46;71.63;101302.97;4968272;28;20140;-85
2021/04/12 04:54:33;;;;;;;14.60;7.55;;;2.60;92.70;;;3.51;71.46;101311.53;4990961;28;20488;-85
2021/04/12 04:57:29;;;;;;;17.67;7.55;;;2.60;93.10;;;3.45;71.61;101311.19;4996518;28;20045;-86
2021/04/12 05:00:34;;;;;;;13.15;7.40;;;2.70;93.20;;;3.39;71.83;101325.97;4994619;28;20125;-85
2021/04/12 05:04:00;;;;;;;18.48;7.55;;;2.60;93.10;;;3.43;72.30;101324.75;4967444;28;20117;-84
2021/04/12 05:07:29;;;;;;;15.45;7.55;;;2.60;93.30;;;3.47;71.80;101326.22;4991862;28;20050;-86
2021/04/12 05:10:31;;;;;;;13.68;7.43;;;2.60;93.30;;;3.42;71.91;101339.16;4995761;28;20050;-84
2021/04/12 05:13:14;;;;;;;14.55;6.82;;;2.60;93.10;;;3.41;72.63;101340.16;4996212;28;20050;-84
2021/04/12 05:16:39;;;;;;;16.08;8.07;;;2.80;93.30;;;3.46;72.58;101343.31;4996845;28;20070;-85
2021/04/12 05:19:44;;;;;;;14.75;7.68;;;2.70;93.50;;;3.41;72.61;101348.22;4992957;28;20069;-85
2021/04/12 05:22:56;;;;;;;20.83;9.48;;;2.70;93.30;;;3.43;73.08;101351.66;4994707;28;20049;-84
2021/04/12 05:25:53;;;;;;;22.90;10.13;;;2.70;93.60;;;3.47;72.68;101354.97;4984458;28;20066;-85
2021/04/12 05:28:55;;;;;;;16.13;10.25;;;2.70;93.60;;;3.53;72.81;101354.50;4994825;28;20038;-85
2021/04/12 05:31:56;;;;;;;14.38;9.20;;;2.80;93.70;;;3.48;72.84;101357.56;4995232;28;20410;-82
2021/04/12 05:35:04;;;;;;;15.68;8.85;;;2.80;93.80;;;3.52;72.75;101360.84;4996690;28;20561;-82
2021/04/12 05:38:35;;;;;;;15.18;8.65;;;2.80;93.80;;;3.50;73.57;101363.66;4994386;28;20042;-85
2021/04/12 05:41:37;;;;;;;13.77;8.13;;;2.80;93.80;;;3.47;73.51;101363.88;4993740;28;20034;-83
2021/04/12 05:44:44;;;;;;;19.38;8.73;;;2.80;94.10;;;3.57;73.97;101377.50;4994825;28;20039;-83
2021/04/12 05:47:46;;;;;;;15.50;10.02;;;2.90;94.40;;;3.60;74.24;101373.69;4989849;28;20050;-82
2021/04/12 05:51:07;;;;;;;19.20;10.43;;;3.00;94.20;;;3.72;73.90;101383.53;4994850;28;20034;-82
2021/04/12 05:54:22;;;;;;;20.25;10.70;;;3.00;94.60;;;3.72;74.17;101389.78;4987715;28;20120;-82
2021/04/12 05:57:35;;;;;;;16.60;9.48;;;3.10;94.90;;;3.78;74.71;101388.44;4994092;28;20120;-83
2021/04/12 06:00:28;;;;;;;19.90;9.77;;;3.20;94.80;;;3.77;74.94;101402.88;4995160;28;20129;-82
2021/04/12 06:03:23;;;;;;;16.27;8.90;;;3.30;95.20;;;3.78;75.53;101399.22;4995023;28;20046;-83
2021/04/12 06:07:01;;;;;;;17.15;9.55;;;3.40;95.30;;;3.86;75.64;101396.78;4993385;28;20050;-83
2021/04/12 06:10:20;;;;;;;16.98;8.43;;;3.50;95.20;;;3.96;75.49;101399.63;4953605;28;20388;-84
2021/04/12 06:13:23;;;;;;;18.08;8.73;;;3.60;94.60;;;4.11;74.69;101400.22;4943270;28;20053;-83
2021/04/12 06:16:13;;;;;;;19.02;8.82;;;3.70;94.20;;;4.14;75.38;101402.69;4972179;28;20054;-82
2021/04/12 06:19:11;;;;;;;17.08;9.00;;;3.80;94.10;;;4.16;74.88;101403.44;4995547;28;20053;-82
2021/04/12 06:22:10;;;;;;;22.15;9.63;;;3.80;93.60;;;4.22;74.81;101413.72;4995539;28;20046;-82
2021/04/12 06:25:34;;;;;;;20.15;8.73;;;3.90;93.70;;;4.23;75.35;101414.59;4987506;28;20189;-82
2021/04/12 06:28:55;;;;;;;21.15;9.30;;;4.00;93.80;;;4.27;75.06;101424.16;4995033;28;20050;-82
2021/04/12 06:32:10;;;;;;;17.30;9.13;;;4.10;93.60;;;4.34;75.02;101421.81;4994789;28;20046;-82
2021/04/12 06:35:19;;;;;;;17.92;8.73;;;4.10;93.40;;;4.42;74.19;101419.38;4995305;28;20034;-82
2021/04/12 06:38:27;;;;;;;17.92;9.05;;;4.10;93.20;;;4.45;74.16;101429.91;4994169;28;20468;-82
2021/04/12 06:41:51;;;;;;;16.13;9.45;;;4.20;92.90;;;4.51;74.39;101434.78;4994127;28;20034;-82
2021/04/12 06:44:56;;;;;;;24.02;10.10;;;4.20;93.20;;;4.52;74.52;101432.97;4959852;28;20054;-84
2021/04/12 06:48:13;;;;;;;21.00;10.30;;;4.30;93.20;;;4.55;74.62;101447.06;4994898;28;20049;-82
2021/04/12 06:51:28;;;;;;;16.38;9.23;;;4.40;92.70;;;4.57;75.24;101449.63;4952336;28;20065;-82
2021/04/12 06:54:58;;;;;;;17.58;9.40;;;4.40;93.20;;;4.66;74.72;101441.69;4984939;28;20050;-82
2021/04/12 06:58:09;;;;;;;30.23;11.93;;;4.50;93.10;;;4.72;74.36;101443.00;4994370;28;20051;-83
2021/04/12 07:01:19;;;;;;;;;;;4.60;92.30;;;4.77;75.32;101454.28;4949851;28;20069;-82
2021/04/12 07:04:34;;;;;;;22.83;11.85;;;4.70;92.70;;;4.82;74.85;101454.78;4994734;28;19932;-82
2021/04/12 07:07:42;;;;;;;22.95;10.68;;;4.80;92.60;;;4.89;74.67;101461.41;4950200;28;20054;-82
2021/04/12 07:11:14;;;;;;;19.40;10.20;;;4.80;92.50;;;4.97;75.12;101462.59;4993736;28;20046;-83
2021/04/12 07:14:38;;;;;;;19.10;9.95;;;4.90;93.10;;;5.03;75.00;101462.97;4950285;28;20621;-82
2021/04/12 07:18:10;;;;;;;18.92;10.02;;;5.00;92.70;;;5.09;74.69;101472.41;4949907;28;20108;-82
2021/04/12 07:21:17;;;;;;;18.45;9.57;;;5.00;92.00;;;5.12;74.88;101474.81;4881482;28;20596;-82
2021/04/12 07:24:49;;;;;;;21.63;9.85;;;5.20;91.80;;;5.16;74.57;101470.03;4990083;28;20054;-82
2021/04/12 07:28:06;;;;;;;17.52;9.65;;;5.30;91.80;;;5.18;74.70;101473.47;4988701;28;20482;-83
2021/04/12 07:31:27;;;;;;;19.58;10.00;;;5.30;91.00;;;5.27;74.88;101486.22;4993377;28;20046;-83
2021/04/12 07:34:17;;;;;;;17.53;8.53;;;5.50;91.10;;;5.33;74.81;101484.84;4993429;28;20061;-83
2021/04/12 07:37:38;;;;;;;17.48;9.18;;;5.60;90.70;;;5.36;74.71;101481.91;4992486;28;20046;-84
2021/04/12 07:41:01;;;;;;;14.48;7.90;;;5.60;90.70;;;5.38;75.16;101482.63;4992040;28;20074;-83
2021/04/12 07:44:36;;;;;;;15.63;7.47;;;5.70;90.50;;;5.43;75.07;101488.53;4992524;28;20446;-83
2021/04/12 07:48:06;;;;;;;15.05;7.60;;;5.80;90.40;;;5.48;75.53;101497.94;4991529;28;20050;-83
2021/04/12 07:51:29;;;;;;;12.88;6.97;;;6.00;89.70;;;5.47;74.45;101498.06;4990915;28;20057;-87
2021/04/12 07:54:59;;;;;;;16.40;7.88;;;6.10;89.00;;;5.52;74.46;101501.25;4990162;28;20050;-87
2021/04/12 07:58:14;;;;;;;13.95;7.72;;;6.10;88.50;;;5.61;74.37;101502.31;4932894;29;20115;-83
2021/04/12 08:01:44;;;;;;;17.05;7.82;;;6.10;88.10;;;5.62;75.18;101512.16;4993473;28;20073;-82
2021/04/12 08:05:26;;;;;;;14.43;7.35;;;6.20;89.00;;;5.66;74.83;101509.06;4999307;28;20058;-82
2021/04/12 08:08:35;;;;;;;12.50;7.57;;;6.40;87.60;;;5.77;75.11;101505.47;4993695;28;20042;-82
2021/04/12 08:12:08;;;;;;;18.17;8.02;;;6.60;88.30;;;5.84;74.75;101508.50;4993016;28;20546;-82
2021/04/12 08:15:36;;;;;;;13.05;7.38;;;6.60;87.30;;;5.90;74.04;101515.22;4910094;29;20608;-82
2021/04/12 08:18:29;;;;;;;18.27;7.90;;;6.70;86.90;;;5.98;74.27;101512.78;4930124;28;20104;-82
2021/04/12 08:21:46;;;;;;;11.45;6.80;;;6.70;87.40;;;5.94;73.95;101522.06;4997657;28;20138;-83
2021/04/12 08:24:59;;;;;;;20.30;6.88;;;6.80;86.80;;;6.01;74.51;101524.16;4995583;28;20050;-82
2021/04/12 08:28:11;;;;;;;11.95;7.03;;;6.90;86.80;;;6.09;73.36;101526.22;4986595;28;20062;-82
2021/04/12 08:31:24;;;;;;;;;;;6.90;86.00;;;6.14;73.58;101528.53;5000566;28;20039;-82
2021/04/12 08:34:47;;;;;;;12.07;6.18;;;6.90;86.10;;;6.17;73.63;101537.25;5001633;28;19960;-82
2021/04/12 08:38:21;;;;;;;13.48;6.05;;;7.00;86.20;;;6.22;73.11;101532.28;4955533;28;20050;-83
2021/04/12 08:41:34;;;;;;;11.95;5.30;;;7.00;85.30;;;6.04;72.52;101533.88;4996655;28;20050;-84
2021/04/12 08:44:58;;;;;;;15.35;5.80;;;7.10;83.90;;;5.96;72.59;101529.13;4947647;28;20054;-84
2021/04/12 08:48:28;;;;;;;12.25;6.20;;;7.10;83.60;;;6.15;73.30;101536.53;4943527;28;20054;-83
2021/04/12 08:51:28;;;;;;;13.60;6.22;;;7.20;84.50;;;6.25;73.08;101534.72;4998361;28;20038;-83
2021/04/12 08:54:42;;;;;;;17.15;7.40;;;7.30;84.50;;;6.34;72.75;101538.50;4998979;28;20042;-83
2021/04/12 08:58:12;;;;;;;13.93;7.40;;;7.30;85.00;;;6.37;72.97;101537.38;4998668;28;20061;-83
2021/04/12 09:01:38;;;;;;;15.00;7.30;;;7.30;84.40;;;6.44;72.77;101536.72;5002070;28;20061;-83
2021/04/12 09:04:58;;;;;;;14.02;6.38;;;7.40;84.50;;;6.42;73.14;101536.00;4964056;28;20701;-83
2021/04/12 09:08:04;;;;;;;15.73;7.88;;;7.50;83.90;;;6.51;72.52;101547.88;5001584;28;20065;-83
2021/04/12 09:11:40;;;;;;;12.35;7.50;;;7.50;83.60;;;6.56;72.06;101540.19;5000644;28;20054;-82
2021/04/12 09:15:03;;;;;;;11.05;6.65;;;7.60;84.00;;;6.61;72.38;101543.38;5001791;28;20109;-83
2021/04/12 09:18:34;;;;;;;14.40;6.90;;;7.60;83.80;;;6.59;71.50;101542.66;4959703;28;20069;-83
2021/04/12 09:21:36;;;;;;;14.25;7.50;;;7.70;83.60;;;6.65;71.89;101550.22;5001912;28;20042;-83
2021/04/12 09:24:44;;;;;;;13.88;7.05;;;7.70;83.10;;;6.59;71.08;101550.75;4992276;28;20411;-83
2021/04/12 09:27:50;;;;;;;14.65;8.00;;;7.80;81.70;;;6.67;71.63;101552.78;4990221;28;20493;-83
2021/04/12 09:31:16;;;;;;;15.45;8.85;;;7.70;82.20;;;6.77;72.30;101551.00;5006499;28;20073;-83
2021/04/12 09:35:02;;;;;;;16.98;9.00;;;7.80;83.30;;;6.84;72.15;101543.22;4990287;28;20042;-84
2021/04/12 09:38:37;;;;;;;14.70;7.82;;;8.00;82.30;;;6.91;69.97;101549.81;4882657;29;20420;-84
2021/04/12 09:41:54;;;;;;;11.40;7.13;;;8.10;81.00;;;6.96;70.38;101547.53;4940880;28;20059;-84
2021/04/12 09:45:33;;;;;;;16.02;8.23;;;8.20;80.30;;;7.00;69.55;101545.41;4997576;28;20042;-83
2021/04/12 09:49:03;;;;;;;14.18;8.30;;;8.30;79.70;;;6.99;69.15;101541.84;4997282;28;20050;-83
2021/04/12 09:52:28;;;;;;;13.55;6.93;;;8.20;78.80;;;6.96;71.56;101542.09;4997877;28;20414;-83
2021/04/12 09:55:47;;;;;;;17.90;7.70;;;8.30;79.90;;;7.12;69.98;101543.44;4914445;29;20595;-83
2021/04/12 09:59:06;;;;;;;13.35;7.03;;;8.40;79.40;;;7.17;69.51;101543.91;4996063;28;20060;-82
2021/04/12 10:02:14;;;;;;;11.93;6.50;;;8.50;79.70;;;7.19;68.43;101544.63;4992101;28;20049;-82
2021/04/12 10:04:54;;;;;;;14.60;6.60;;;8.40;77.50;;;7.22;68.94;101552.47;4991132;28;20056;-83
2021/04/12 10:08:03;;;;;;;19.45;7.80;;;8.30;78.30;;;7.24;68.08;101555.91;4990947;28;20454;-83
2021/04/12 10:10:36;;;;;;;12.98;8.15;;;8.20;77.70;;;7.21;67.25;101557.03;4991650;28;20113;-84
2021/04/12 10:13:15;;;;;;;11.80;7.32;;;8.10;76.50;;;7.24;66.48;101561.31;4997983;28;20065;-85
2021/04/12 10:16:05;;;;;;;12.07;7.00;;;7.90;76.80;;;7.23;66.42;101554.19;4993899;28;20100;-87
2021/04/12 10:18:45;;;;;;;10.40;6.45;;;7.80;77.40;;;7.22;64.53;101552.47;4990609;28;20085;-84
2021/04/12 10:21:32;;;;;;;13.18;6.30;;;7.70;75.40;;;7.22;65.30;101549.78;4991367;28;20141;-81
2021/04/12 10:24:23;;;;;;;12.60;6.90;;;7.70;78.20;;;7.17;65.93;101541.19;4990771;28;20164;-84
2021/04/12 10:26:59;;;;;;;15.32;6.80;;;7.80;78.10;;;7.20;66.26;101535.53;4990569;28;20108;-84
2021/04/12 10:29:37;;;;;;;11.88;5.97;;;7.80;77.70;;;7.22;65.53;101536.25;4991149;28;20042;-83
2021/04/12 10:32:14;;;;;;;8.45;4.40;;;7.90;78.10;;;7.24;63.91;101545.94;4989997;28;20058;-83
2021/04/12 10:34:46;;;;;;;10.18;4.28;;;8.10;75.40;;;7.28;64.20;101535.69;4995054;28;20492;-84
2021/04/12 10:37:46;;;;;;;4.53;2.28;;;8.20;74.80;;;7.36;62.11;101540.41;4996778;28;20072;-83
2021/04/12 10:40:25;;;;;;;3.63;1.50;;;8.30;74.60;;;7.43;59.43;101537.00;4997671;28;20046;-83
2021/04/12 10:43:02;;;;;;;5.05;1.77;;;8.50;70.50;;;7.56;59.94;101538.63;4996373;28;20042;-83
2021/04/12 10:45:32;;;;;;;8.57;2.00;;;8.70;70.20;;;7.58;57.98;101536.63;4993127;28;20518;-83
2021/04/12 10:48:06;;;;;;;7.10;2.03;;;8.80;68.50;;;7.62;57.43;101540.75;4997534;28;20054;-83
2021/04/12 10:50:52;;;;;;;6.38;1.58;;;8.90;67.50;;;7.66;57.83;101527.78;4998427;28;20043;-83
2021/04/12 10:54:09;;;;;;;3.63;1.55;;;8.90;64.80;;;7.75;57.83;101533.22;4996823;28;20038;-83
2021/04/12 10:56:41;;;;;;;5.90;1.67;;;9.00;67.20;;;7.82;52.07;101549.75;4997743;28;20053;-83
2021/04/12 10:59:54;;;;;;;8.55;2.70;;;9.10;61.10;;;7.71;58.80;101572.44;4996914;28;20053;-83
2021/04/12 11:02:24;;;;;;;9.40;2.85;;;9.10;67.30;;;7.66;61.26;101577.41;4995956;28;20047;-83
2021/04/12 11:04:59;;;;;;;7.32;2.45;;;8.90;69.90;;;7.50;62.53;101596.91;4997608;28;20042;-83
2021/04/12 11:07:45;;;;;;;6.55;2.95;;;8.90;71.50;;;7.46;61.30;101597.31;4994046;28;20239;-82
2021/04/12 11:10:31;;;;;;;6.03;2.35;;;8.80;70.80;;;7.29;62.44;101607.81;4995093;28;20049;-84
2021/04/12 11:13:06;;;;;;;5.20;2.70;;;8.50;71.80;;;7.21;62.80;101621.16;4996138;28;20074;-83
2021/04/12 11:15:58;;;;;;;3.55;1.63;;;8.40;72.50;;;7.04;62.99;101631.63;4994496;28;20124;-82
2021/04/12 11:18:32;;;;;;;5.05;2.30;;;8.30;73.00;;;7.01;65.21;101631.88;4997314;28;20047;-83
2021/04/12 11:21:10;;;;;;;7.88;3.45;;;8.10;74.80;;;6.82;65.93;101642.59;4997530;28;20073;-83
2021/04/12 11:23:45;;;;;;;8.13;3.55;;;8.00;75.70;;;6.94;66.75;101646.94;4997585;28;20066;-83
2021/04/12 11:26:23;;;;;;;4.05;2.25;;;7.80;76.80;;;6.87;65.91;101653.84;4993442;28;20515;-83
2021/04/12 11:28:56;;;;;;;4.55;2.30;;;7.80;76.80;;;6.77;67.27;101661.06;4997360;28;20050;-82
2021/04/12 11:31:43;;;;;;;3.80;1.77;;;7.70;77.60;;;6.85;67.35;101661.25;4997637;28;20042;-82
2021/04/12 11:34:19;;;;;;;4.15;2.00;;;7.60;79.30;;;6.74;67.29;101661.31;4995324;28;20690;-82
2021/04/12 11:37:08;;;;;;;3.30;1.80;;;7.40;79.00;;;6.62;68.41;101669.47;4997293;28;20395;-82
2021/04/12 11:39:38;;;;;;;4.22;2.03;;;7.30;80.80;;;6.56;67.83;101674.56;4996821;28;20071;-82
2021/04/12 11:42:13;;;;;;;5.10;1.90;;;7.10;80.70;;;6.56;67.91;101682.69;4992264;28;20053;-83
2021/04/12 11:44:45;;;;;;;3.92;2.00;;;6.90;81.50;;;6.55;68.37;101673.72;4989275;28;20050;-83
2021/04/12 11:47:42;;;;;;;4.05;2.00;;;6.60;82.10;;;6.55;68.99;101679.13;4993908;28;20050;-83
2021/04/12 11:50:31;;;;;;;3.88;1.70;;;6.50;83.30;;;6.45;68.48;101686.28;4996307;28;20065;-82
2021/04/12 11:53:09;;;;;;;3.78;2.03;;;6.30;83.60;;;6.46;68.63;101682.59;4995116;28;20042;-82
2021/04/12 11:55:47;;;;;;;3.53;1.77;;;6.10;84.50;;;6.40;69.04;101686.69;4997559;28;21046;-82
2021/04/12 11:58:22;;;;;;;3.47;1.80;;;6.00;85.10;;;6.33;68.56;101674.66;4983285;28;20058;-83
2021/04/12 12:01:08;;;;;;;3.17;1.60;;;5.90;85.20;;;6.25;68.92;101650.13;4995152;28;20073;-82
2021/04/12 12:04:13;;;;;;;3.50;1.80;;;5.70;85.70;;;6.32;69.38;101629.69;4999004;28;20049;-82
2021/04/12 12:06:52;;;;;;;3.53;1.70;;;5.80;86.70;;;6.33;70.64;101627.84;4987903;28;20062;-83
2021/04/12 12:09:40;;;;;;;3.05;1.60;;;5.90;87.80;;;6.40;70.54;101632.59;5002378;28;20569;-82
2021/04/12 12:12:24;;;;;;;3.22;1.70;;;6.10;88.10;;;6.47;71.62;101641.03;5004407;28;20053;-82
2021/04/12 12:15:11;;;;;;;3.70;1.70;;;6.30;88.10;;;6.48;71.53;101642.78;5004145;28;20065;-82
2021/04/12 12:17:43;;;;;;;2.95;1.50;;;6.40;87.20;;;6.50;71.54;101638.09;5004332;28;20053;-82
2021/04/12 12:20:19;;;;;;;5.53;1.83;;;6.60;87.50;;;6.61;71.70;101637.19;5004505;28;20046;-82
2021/04/12 12:22:58;;;;;;;3.75;2.03;;;6.60;87.80;;;6.69;71.66;101642.78;5001837;28;20645;-82
2021/04/12 12:25:39;;;;;;;4.50;1.88;;;6.80;87.70;;;6.78;71.91;101642.00;5002631;28;20050;-82
2021/04/12 12:28:23;;;;;;;4.68;1.83;;;6.90;87.60;;;6.77;72.26;101634.00;5002488;28;20093;-82
2021/04/12 12:31:09;;;;;;;6.93;2.13;;;7.00;87.70;;;6.69;71.54;101640.09;5003862;28;20105;-82
2021/04/12 12:33:47;;;;;;;4.80;2.00;;;7.20;85.40;;;6.78;70.58;101636.59;5002819;28;20231;-82
2021/04/12 12:36:21;;;;;;;7.22;2.20;;;7.20;84.00;;;6.85;71.15;101634.19;5003737;28;20061;-83
2021/04/12 12:39:09;;;;;;;5.28;2.55;;;7.20;85.00;;;6.86;71.09;101638.63;5005090;28;20042;-82
2021/04/12 12:41:42;;;;;;;6.32;2.60;;;7.20;85.00;;;6.94;70.15;101630.69;5004817;28;20049;-82